Time;durP1;ratioP1;P1;durP2;ratioP2;P2;SDS_P1;SDS_P2;PMS_P1;PMS_P2;Temp;Humidity;BMP_temperature;BMP_pressure;BME280_temperature;BME280_humidity;BME280_pressure;Samples;Min_cycle;Max_cycle;Signal;HPM_P1;HPM_P2
2021/03/20 00:01:19;;;;;;;13.43;7.55;;;-0.40;6.40;;;;;;4940696;29;20051;-76
2021/03/20 00:03:46;;;;;;;14.52;8.30;;;-0.40;7.10;;;;;;4943987;29;20056;-74
2021/03/20 00:06:19;;;;;;;13.13;8.35;;;-0.50;8.30;;;;;;4942622;29;20138;-75
2021/03/20 00:08:49;;;;;;;14.05;7.72;;;-0.60;8.90;;;;;;4940965;29;20056;-75
2021/03/20 00:11:16;;;;;;;13.93;7.60;;;-0.70;9.10;;;;;;4941366;29;20078;-75
2021/03/20 00:13:43;;;;;;;14.63;7.95;;;-0.80;10.20;;;;;;4940033;29;20717;-74
2021/03/20 00:16:11;;;;;;;16.00;7.55;;;-0.70;11.00;;;;;;4944770;29;20055;-73
2021/03/20 00:18:39;;;;;;;12.70;7.50;;;-0.70;10.80;;;;;;4942220;29;20083;-78
2021/03/20 00:21:07;;;;;;;11.27;6.68;;;-0.50;10.00;;;;;;4936780;29;20178;-76
2021/03/20 00:23:34;;;;;;;10.23;7.22;;;-0.40;9.20;;;;;;4939890;29;20062;-73
2021/03/20 00:26:03;;;;;;;11.65;7.47;;;-0.30;8.80;;;;;;4946721;29;20051;-74
2021/03/20 00:28:30;;;;;;;12.45;7.57;;;-0.20;8.50;;;;;;4942560;29;20055;-73
2021/03/20 00:30:59;;;;;;;14.43;8.27;;;-0.10;8.40;;;;;;4939761;29;20051;-73
2021/03/20 00:33:27;;;;;;;12.30;7.55;;;0.00;8.20;;;;;;4939457;28;20557;-72
2021/03/20 00:35:55;;;;;;;10.10;6.97;;;0.00;7.30;;;;;;4944976;29;20421;-72
2021/03/20 00:38:24;;;;;;;12.70;6.97;;;0.00;7.80;;;;;;4941116;29;20051;-74
2021/03/20 00:40:52;;;;;;;14.48;7.55;;;0.10;6.60;;;;;;4938550;29;20163;-73
2021/03/20 00:43:20;;;;;;;8.98;6.50;;;0.10;6.60;;;;;;4940966;28;20051;-74
2021/03/20 00:45:47;;;;;;;12.85;7.13;;;0.10;6.80;;;;;;4944558;29;20052;-74
2021/03/20 00:48:19;;;;;;;13.30;7.75;;;0.10;7.00;;;;;;4936595;29;20054;-73
2021/03/20 00:50:46;;;;;;;10.90;6.68;;;0.00;7.60;;;;;;4939277;29;20077;-73
2021/03/20 00:53:13;;;;;;;12.85;7.07;;;-0.10;8.30;;;;;;4939922;29;20048;-73
2021/03/20 00:55:40;;;;;;;13.63;7.20;;;-0.20;8.80;;;;;;4942934;29;20048;-74
2021/03/20 00:58:25;;;;;;;15.20;7.25;;;-0.20;9.60;;;;;;4942976;28;20074;-73
2021/03/20 01:00:55;;;;;;;11.75;6.22;;;-0.20;10.10;;;;;;4935036;29;20069;-72
2021/03/20 01:03:22;;;;;;;10.05;6.18;;;-0.30;10.60;;;;;;4945610;29;20051;-73
2021/03/20 01:05:53;;;;;;;16.42;7.28;;;-0.30;10.80;;;;;;4938990;29;20051;-73
2021/03/20 01:08:20;;;;;;;10.00;6.65;;;-0.20;10.40;;;;;;4943549;29;20130;-72
2021/03/20 01:10:48;;;;;;;11.57;6.53;;;-0.20;10.40;;;;;;4943846;29;20060;-75
2021/03/20 01:13:16;;;;;;;11.75;6.53;;;-0.10;10.40;;;;;;4944507;29;20102;-72
2021/03/20 01:15:44;;;;;;;13.07;6.68;;;-0.10;10.50;;;;;;4943069;29;20048;-73
2021/03/20 01:18:11;;;;;;;11.48;7.18;;;-0.10;10.50;;;;;;4938952;29;20131;-73
2021/03/20 01:20:39;;;;;;;13.05;7.40;;;-0.10;9.90;;;;;;4936607;29;20064;-76
2021/03/20 01:23:06;;;;;;;10.82;7.15;;;-0.10;10.50;;;;;;4935591;29;20441;-75
2021/03/20 01:25:33;;;;;;;12.73;8.25;;;-0.10;10.60;;;;;;4940304;29;20407;-73
2021/03/20 01:28:00;;;;;;;11.02;7.20;;;-0.20;11.10;;;;;;4941202;29;20062;-73
2021/03/20 01:30:31;;;;;;;12.30;7.43;;;-0.20;11.20;;;;;;4943182;29;20105;-75
2021/03/20 01:32:59;;;;;;;11.50;6.78;;;-0.20;11.20;;;;;;4941033;29;20594;-74
2021/03/20 01:35:27;;;;;;;13.05;7.28;;;-0.20;11.60;;;;;;4942820;29;20115;-73
2021/03/20 01:37:57;;;;;;;13.55;6.95;;;-0.10;11.70;;;;;;4943435;28;20477;-76
2021/03/20 01:40:27;;;;;;;10.60;7.32;;;-0.10;11.50;;;;;;4946899;29;20504;-74
2021/03/20 01:42:54;;;;;;;11.05;7.32;;;-0.10;11.60;;;;;;4939690;29;20071;-71
2021/03/20 01:45:23;;;;;;;11.88;6.88;;;-0.10;11.50;;;;;;4941312;29;20054;-74
2021/03/20 01:47:59;;;;;;;14.20;7.13;;;-0.10;11.50;;;;;;4938745;29;20043;-73
2021/03/20 01:50:33;;;;;;;12.30;8.00;;;-0.10;11.20;;;;;;4939681;29;20056;-72
2021/03/20 01:53:12;;;;;;;14.15;8.27;;;-0.10;10.90;;;;;;4939095;29;20039;-73
2021/03/20 01:55:41;;;;;;;13.70;8.30;;;-0.10;11.10;;;;;;4945314;29;20086;-74
2021/03/20 01:58:08;;;;;;;13.75;7.55;;;0.00;10.90;;;;;;4939430;29;20069;-73
2021/03/20 02:00:38;;;;;;;12.55;7.70;;;0.00;11.00;;;;;;4937857;29;20052;-73
2021/03/20 02:03:09;;;;;;;10.43;6.97;;;0.00;10.70;;;;;;4943092;29;20597;-73
2021/03/20 02:05:37;;;;;;;11.30;6.90;;;0.00;10.90;;;;;;4939996;29;20055;-74
2021/03/20 02:08:06;;;;;;;12.73;7.13;;;0.10;11.20;;;;;;4940890;29;20134;-73
2021/03/20 02:10:38;;;;;;;12.57;6.93;;;0.00;11.20;;;;;;4941042;29;20061;-74
2021/03/20 02:13:10;;;;;;;11.93;6.93;;;0.00;11.90;;;;;;4939546;29;20493;-73
2021/03/20 02:15:42;;;;;;;13.70;7.25;;;0.00;12.10;;;;;;4941693;29;20055;-72
2021/03/20 02:18:17;;;;;;;12.57;7.80;;;0.00;12.50;;;;;;4939548;29;20066;-73
2021/03/20 02:21:08;;;;;;;12.48;7.90;;;0.00;12.20;;;;;;4938007;29;20047;-74
2021/03/20 02:24:23;;;;;;;12.90;7.97;;;0.00;13.40;;;;;;4939133;29;20058;-72
2021/03/20 02:27:18;;;;;;;12.57;8.20;;;0.00;12.50;;;;;;4941061;29;20134;-73
2021/03/20 02:30:33;;;;;;;14.45;7.97;;;0.00;12.90;;;;;;4935359;29;20055;-72
2021/03/20 02:33:18;;;;;;;14.98;8.18;;;0.00;12.90;;;;;;4937368;29;20039;-73
2021/03/20 02:35:55;;;;;;;13.68;8.13;;;0.10;12.70;;;;;;4942652;29;20118;-74
2021/03/20 02:38:31;;;;;;;18.58;8.63;;;0.10;12.60;;;;;;4940153;29;20055;-73
2021/03/20 02:41:02;;;;;;;11.65;7.82;;;0.10;12.70;;;;;;4940907;29;20051;-73
2021/03/20 02:43:37;;;;;;;12.75;8.20;;;0.20;13.10;;;;;;4935900;29;20130;-72
2021/03/20 02:46:10;;;;;;;13.15;8.02;;;0.10;12.40;;;;;;4940811;29;20047;-74
2021/03/20 02:48:46;;;;;;;14.63;7.63;;;0.10;12.80;;;;;;4935285;29;20058;-73
2021/03/20 02:51:20;;;;;;;12.73;7.72;;;0.10;13.00;;;;;;4939568;29;20047;-73
2021/03/20 02:53:52;;;;;;;14.05;7.32;;;0.00;13.30;;;;;;4938075;29;20058;-74
2021/03/20 02:56:26;;;;;;;12.02;7.43;;;0.10;13.50;;;;;;4943350;28;20055;-74
2021/03/20 02:58:57;;;;;;;11.80;6.85;;;0.00;13.80;;;;;;4936435;29;20051;-73
2021/03/20 03:01:27;;;;;;;11.75;7.22;;;0.00;14.10;;;;;;4938435;29;20078;-73
2021/03/20 03:03:57;;;;;;;13.73;7.38;;;0.00;15.00;;;;;;4937698;29;20425;-73
2021/03/20 03:06:28;;;;;;;12.05;7.68;;;0.00;15.10;;;;;;4939923;29;20051;-72
2021/03/20 03:09:00;;;;;;;11.75;6.82;;;0.10;15.10;;;;;;4930922;29;20059;-73
2021/03/20 03:11:32;;;;;;;12.95;8.02;;;0.00;14.90;;;;;;4942961;29;20047;-73
2021/03/20 03:14:05;;;;;;;11.93;7.63;;;0.10;14.80;;;;;;4937652;29;20062;-72
2021/03/20 03:16:36;;;;;;;11.10;6.63;;;0.10;14.40;;;;;;4939798;29;20514;-73
2021/03/20 03:19:08;;;;;;;11.00;6.60;;;0.10;14.80;;;;;;4933665;29;20051;-72
2021/03/20 03:21:40;;;;;;;11.00;6.55;;;0.10;15.00;;;;;;4941243;29;20044;-74
2021/03/20 03:24:09;;;;;;;11.60;6.90;;;0.10;15.40;;;;;;4934642;29;20051;-73
2021/03/20 03:26:40;;;;;;;10.82;7.38;;;0.00;15.90;;;;;;4942269;29;20058;-74
2021/03/20 03:29:11;;;;;;;11.27;6.93;;;0.00;16.40;;;;;;4935847;29;20055;-72
2021/03/20 03:31:43;;;;;;;11.77;6.95;;;0.00;16.90;;;;;;4942320;29;20059;-73
2021/03/20 03:34:18;;;;;;;11.73;6.93;;;0.00;16.50;;;;;;4935572;29;20099;-73
2021/03/20 03:36:50;;;;;;;10.45;6.85;;;0.00;16.80;;;;;;4942093;29;20050;-75
2021/03/20 03:39:24;;;;;;;11.70;7.43;;;0.00;17.00;;;;;;4936005;29;20117;-73
2021/03/20 03:41:51;;;;;;;;;;;-0.10;17.30;;;;;;4941849;29;20587;-73
2021/03/20 03:44:18;;;;;;;10.93;7.10;;;-0.10;17.90;;;;;;4937586;29;19929;-73
2021/03/20 03:46:47;;;;;;;11.40;7.35;;;-0.10;18.20;;;;;;4940173;29;20047;-74
2021/03/20 03:49:19;;;;;;;11.23;7.55;;;-0.10;18.70;;;;;;4936720;29;20528;-71
2021/03/20 03:51:46;;;;;;;14.27;7.75;;;-0.10;19.00;;;;;;4940165;29;20054;-74
2021/03/20 03:54:13;;;;;;;14.73;8.80;;;-0.10;19.30;;;;;;4935540;29;20054;-74
2021/03/20 03:57:05;;;;;;;11.55;7.40;;;-0.10;19.10;;;;;;4941232;29;20167;-73
2021/03/20 03:59:47;;;;;;;10.57;7.15;;;-0.20;19.40;;;;;;4933946;29;20541;-73
2021/03/20 04:02:21;;;;;;;10.63;7.32;;;-0.20;19.80;;;;;;4938006;29;20052;-73
2021/03/20 04:05:00;;;;;;;11.93;7.55;;;-0.30;19.70;;;;;;4940983;29;20107;-72
2021/03/20 04:07:46;;;;;;;11.05;7.63;;;-0.30;20.90;;;;;;4939269;29;20052;-73
2021/03/20 04:10:24;;;;;;;12.85;8.65;;;-0.40;21.30;;;;;;4939810;29;20051;-72
2021/03/20 04:12:57;;;;;;;12.27;8.18;;;-0.40;22.30;;;;;;4942353;29;20059;-73
2021/03/20 04:15:36;;;;;;;12.00;7.90;;;-0.50;22.90;;;;;;4945647;29;20051;-73
2021/03/20 04:18:12;;;;;;;10.10;7.13;;;-0.50;23.50;;;;;;4937848;29;20051;-72
2021/03/20 04:20:47;;;;;;;14.10;8.77;;;-0.50;24.10;;;;;;4941683;29;20391;-73
2021/03/20 04:23:18;;;;;;;11.32;8.07;;;-0.60;24.70;;;;;;4940647;29;20070;-72
2021/03/20 04:25:54;;;;;;;13.77;9.20;;;-0.70;25.20;;;;;;4944107;29;20625;-72
2021/03/20 04:28:29;;;;;;;14.30;9.35;;;-0.70;25.80;;;;;;4940378;29;20059;-73
2021/03/20 04:31:04;;;;;;;14.95;10.02;;;-0.70;26.10;;;;;;4940908;29;20057;-73
2021/03/20 04:33:37;;;;;;;12.52;8.60;;;-0.70;26.10;;;;;;4939450;29;20442;-73
2021/03/20 04:36:11;;;;;;;14.60;9.25;;;-0.70;26.10;;;;;;4941762;29;20052;-73
2021/03/20 04:38:38;;;;;;;13.45;8.93;;;-0.80;26.10;;;;;;4942742;29;20055;-72
2021/03/20 04:41:08;;;;;;;17.08;10.23;;;-0.80;27.00;;;;;;4943973;29;20067;-74
2021/03/20 04:43:38;;;;;;;13.45;9.43;;;-0.80;27.10;;;;;;4936844;29;20579;-72
2021/03/20 04:46:10;;;;;;;16.65;9.80;;;-0.80;27.40;;;;;;4942979;29;20431;-72
2021/03/20 04:48:40;;;;;;;17.33;10.00;;;-0.80;27.80;;;;;;4939019;29;20063;-72
2021/03/20 04:51:30;;;;;;;15.43;9.80;;;-0.80;27.90;;;;;;4942673;29;20056;-74
2021/03/20 04:54:05;;;;;;;15.02;9.93;;;-0.90;28.00;;;;;;4938366;29;20433;-72
2021/03/20 04:56:38;;;;;;;16.98;9.77;;;-0.90;28.60;;;;;;4945326;29;20395;-76
2021/03/20 04:59:21;;;;;;;16.38;9.88;;;-0.90;28.80;;;;;;4937040;29;20067;-73
2021/03/20 05:01:50;;;;;;;15.75;10.27;;;-1.00;29.30;;;;;;4940173;29;20055;-71
2021/03/20 05:04:22;;;;;;;14.48;9.60;;;-1.00;29.50;;;;;;4937288;29;20110;-72
2021/03/20 05:06:51;;;;;;;15.00;9.77;;;-1.00;29.50;;;;;;4944065;29;20498;-72
2021/03/20 05:09:22;;;;;;;14.32;9.43;;;-1.10;29.70;;;;;;4937219;29;20067;-74
2021/03/20 05:11:56;;;;;;;15.52;9.98;;;-1.00;30.10;;;;;;4943440;29;20050;-72
2021/03/20 05:14:30;;;;;;;15.30;9.48;;;-1.10;30.00;;;;;;4938527;29;20056;-72
2021/03/20 05:17:00;;;;;;;15.55;9.98;;;-1.10;30.20;;;;;;4943521;29;20501;-72
2021/03/20 05:19:29;;;;;;;15.77;9.70;;;-1.20;30.00;;;;;;4938423;28;20567;-78
2021/03/20 05:21:58;;;;;;;17.00;9.20;;;-1.10;30.50;;;;;;4936851;29;20160;-76
2021/03/20 05:24:28;;;;;;;16.73;9.40;;;-1.20;30.10;;;;;;4938691;29;20051;-73
2021/03/20 05:26:57;;;;;;;14.32;9.10;;;-1.20;30.50;;;;;;4949502;29;20057;-74
2021/03/20 05:29:25;;;;;;;13.90;9.18;;;-1.20;29.90;;;;;;4933300;29;20138;-72
2021/03/20 05:31:53;;;;;;;15.85;9.65;;;-1.10;29.40;;;;;;4947572;29;20051;-77
2021/03/20 05:34:24;;;;;;;15.73;10.02;;;-1.10;29.20;;;;;;4939740;29;20051;-73
2021/03/20 05:36:53;;;;;;;15.23;9.35;;;-1.10;29.00;;;;;;4943273;29;20161;-74
2021/03/20 05:39:21;;;;;;;15.18;8.95;;;-1.10;28.50;;;;;;4940911;29;20063;-73
2021/03/20 05:42:03;;;;;;;14.00;8.35;;;-1.00;28.10;;;;;;4940248;29;20102;-73
2021/03/20 05:44:48;;;;;;;15.00;8.90;;;-1.00;27.80;;;;;;4937369;29;20047;-74
2021/03/20 05:47:31;;;;;;;12.98;8.20;;;-1.00;27.10;;;;;;4945770;29;20057;-75
2021/03/20 05:50:17;;;;;;;11.55;8.10;;;-1.00;26.00;;;;;;4943749;29;20051;-80
2021/03/20 05:53:09;;;;;;;11.60;7.57;;;-1.00;25.90;;;;;;4935748;29;20126;-72
2021/03/20 05:55:44;;;;;;;11.90;7.40;;;-0.90;24.20;;;;;;4943043;29;20059;-73
2021/03/20 05:58:35;;;;;;;11.05;6.82;;;-0.90;22.70;;;;;;4942723;29;20134;-73
2021/03/20 06:01:06;;;;;;;11.02;6.85;;;-0.90;21.40;;;;;;4941229;29;20043;-73
2021/03/20 06:03:55;;;;;;;10.55;7.20;;;-0.80;20.60;;;;;;4938195;29;20043;-72
2021/03/20 06:06:36;;;;;;;10.85;6.90;;;-0.90;20.10;;;;;;4940305;29;20511;-73
2021/03/20 06:09:11;;;;;;;9.48;6.55;;;-0.80;19.40;;;;;;4934029;29;20059;-73
2021/03/20 06:11:51;;;;;;;;;;;-0.70;19.30;;;;;;4940591;29;20055;-73
2021/03/20 06:14:44;;;;;;;7.47;5.00;;;-0.70;18.30;;;;;;4937772;29;19922;-73
2021/03/20 06:17:19;;;;;;;10.23;5.80;;;-0.60;17.10;;;;;;4941458;29;20047;-72
2021/03/20 06:20:03;;;;;;;12.15;6.32;;;-0.50;16.50;;;;;;4939775;29;20051;-74
2021/03/20 06:23:09;;;;;;;9.88;6.15;;;-0.40;15.90;;;;;;4941710;29;21431;-73
2021/03/20 06:25:58;;;;;;;8.85;5.78;;;-0.60;14.50;;;;;;4945550;29;20054;-72
2021/03/20 06:28:32;;;;;;;7.68;5.32;;;-0.40;14.30;;;;;;4939818;29;20055;-75
2021/03/20 06:31:05;;;;;;;8.77;5.67;;;-0.30;12.70;;;;;;4937249;29;20130;-72
2021/03/20 06:33:38;;;;;;;8.68;5.30;;;-0.30;12.80;;;;;;4944251;29;20291;-74
2021/03/20 06:36:10;;;;;;;8.38;5.13;;;-0.30;11.50;;;;;;4944449;29;20528;-73
2021/03/20 06:38:41;;;;;;;7.38;5.13;;;-0.20;9.50;;;;;;4942748;29;20063;-71
2021/03/20 06:41:16;;;;;;;6.95;4.72;;;-0.10;9.10;;;;;;4939445;29;20056;-74
2021/03/20 06:43:52;;;;;;;8.20;5.30;;;-0.10;8.00;;;;;;4938146;29;20480;-73
2021/03/20 06:46:22;;;;;;;7.20;4.63;;;-0.10;6.70;;;;;;4943019;29;20052;-74
2021/03/20 06:48:49;;;;;;;8.15;5.43;;;0.00;6.80;;;;;;4936605;29;20060;-74
2021/03/20 06:51:16;;;;;;;8.35;4.75;;;0.10;5.90;;;;;;4942034;29;20106;-74
2021/03/20 06:53:50;;;;;;;7.35;4.85;;;0.00;5.80;;;;;;4937003;29;20050;-73
2021/03/20 06:56:18;;;;;;;7.70;4.50;;;0.10;5.20;;;;;;4944380;29;20061;-73
2021/03/20 06:58:46;;;;;;;8.60;5.00;;;0.20;3.50;;;;;;4937907;29;20047;-73
2021/03/20 07:01:20;;;;;;;8.43;5.03;;;0.20;3.10;;;;;;4940661;29;20053;-72
2021/03/20 07:04:05;;;;;;;7.97;4.47;;;0.30;3.10;;;;;;4942298;29;20058;-72
2021/03/20 07:06:41;;;;;;;6.38;4.60;;;0.30;3.50;;;;;;4942092;29;20107;-74
2021/03/20 07:09:09;;;;;;;8.20;4.40;;;0.40;2.80;;;;;;4937004;29;20941;-74
2021/03/20 07:11:40;;;;;;;7.45;4.60;;;0.30;3.40;;;;;;4941593;29;20090;-74
2021/03/20 07:14:34;;;;;;;10.23;4.40;;;0.30;3.50;;;;;;4938775;29;20525;-76
2021/03/20 07:17:04;;;;;;;7.85;4.28;;;0.50;1.10;;;;;;4938439;29;20067;-73
2021/03/20 07:19:31;;;;;;;6.03;4.07;;;0.30;1.80;;;;;;4935887;29;20111;-75
2021/03/20 07:22:07;;;;;;;7.35;4.15;;;0.10;3.10;;;;;;4934080;29;20229;-74
2021/03/20 07:24:36;;;;;;;10.18;4.78;;;0.40;1.00;;;;;;4938755;29;21336;-75
2021/03/20 07:27:07;;;;;;;7.15;4.10;;;0.30;1.00;;;;;;4941331;29;20055;-72
2021/03/20 07:29:40;;;;;;;6.72;4.03;;;0.60;1.00;;;;;;4934567;29;20066;-74
2021/03/20 07:32:11;;;;;;;5.65;4.22;;;0.70;1.00;;;;;;4943263;28;20055;-73
2021/03/20 07:34:38;;;;;;;7.13;4.55;;;1.00;1.00;;;;;;4937641;29;20078;-72
2021/03/20 07:37:10;;;;;;;5.70;3.90;;;0.80;1.00;;;;;;4940554;29;20051;-73
2021/03/20 07:39:39;;;;;;;6.82;3.80;;;0.90;1.00;;;;;;4934005;29;20055;-73
2021/03/20 07:42:22;;;;;;;7.43;3.80;;;0.80;1.00;;;;;;4939146;29;20047;-74
2021/03/20 07:44:54;;;;;;;6.07;3.72;;;1.00;1.00;;;;;;4943028;29;20148;-72
2021/03/20 07:47:24;;;;;;;6.55;3.45;;;0.90;1.00;;;;;;4942658;29;20057;-72
2021/03/20 07:50:15;;;;;;;7.85;4.38;;;0.90;1.00;;;;;;4938767;29;20105;-73
2021/03/20 07:52:42;;;;;;;5.80;3.70;;;1.00;1.00;;;;;;4942052;29;20055;-72
2021/03/20 07:55:20;;;;;;;5.32;3.80;;;1.10;1.00;;;;;;4945002;29;20055;-73
2021/03/20 07:57:57;;;;;;;7.72;3.72;;;1.10;1.00;;;;;;4949279;29;20146;-77
2021/03/20 08:00:28;;;;;;;6.90;3.90;;;1.00;1.00;;;;;;4940817;29;20047;-73
2021/03/20 08:03:04;;;;;;;7.28;4.03;;;1.30;1.00;;;;;;4937884;29;20505;-75
2021/03/20 08:05:34;;;;;;;6.43;3.80;;;1.10;1.00;;;;;;4949068;29;20047;-75
2021/03/20 08:08:16;;;;;;;6.03;3.60;;;0.90;1.00;;;;;;4943630;29;20476;-78
2021/03/20 08:10:44;;;;;;;6.15;3.83;;;0.80;1.00;;;;;;4939792;29;20510;-74
2021/03/20 08:13:28;;;;;;;4.88;3.47;;;0.90;1.00;;;;;;4940678;29;20550;-73
2021/03/20 08:15:57;;;;;;;5.93;3.58;;;1.00;1.00;;;;;;4943277;29;20051;-75
2021/03/20 08:18:27;;;;;;;6.35;3.38;;;0.80;1.00;;;;;;4941826;29;20204;-72
2021/03/20 08:21:16;;;;;;;6.60;3.47;;;0.90;1.00;;;;;;4941287;29;20401;-75
2021/03/20 08:23:57;;;;;;;5.93;3.28;;;1.10;1.00;;;;;;4940096;29;20044;-73
2021/03/20 08:26:34;;;;;;;5.85;3.40;;;0.70;1.00;;;;;;4942249;28;20054;-71
2021/03/20 08:29:11;;;;;;;8.45;3.67;;;0.80;1.00;;;;;;4943650;29;20707;-72
2021/03/20 08:32:00;;;;;;;6.25;3.22;;;1.10;1.00;;;;;;4944814;29;20060;-73
2021/03/20 08:34:39;;;;;;;6.65;3.30;;;1.10;1.00;;;;;;4941915;29;20274;-72
2021/03/20 08:37:36;;;;;;;6.95;4.03;;;1.10;1.00;;;;;;4942717;29;20052;-73
2021/03/20 08:40:19;;;;;;;6.13;3.70;;;1.20;1.00;;;;;;4936828;29;20800;-73
2021/03/20 08:43:03;;;;;;;5.32;3.30;;;1.30;1.00;;;;;;4939128;29;20059;-73
2021/03/20 08:45:35;;;;;;;6.97;3.45;;;0.90;1.00;;;;;;4948658;29;20073;-74
2021/03/20 08:48:13;;;;;;;4.53;3.10;;;1.00;1.00;;;;;;4948212;29;20053;-78
2021/03/20 08:50:49;;;;;;;4.00;2.90;;;1.00;1.00;;;;;;4940893;29;20062;-78
2021/03/20 08:53:24;;;;;;;6.07;2.97;;;0.90;1.00;;;;;;4944195;28;20056;-73
2021/03/20 08:56:00;;;;;;;5.15;3.20;;;1.00;1.00;;;;;;4938846;29;20052;-76
2021/03/20 08:58:38;;;;;;;6.25;3.13;;;0.90;1.00;;;;;;4940243;29;20055;-74
2021/03/20 09:01:11;;;;;;;4.57;3.05;;;0.90;1.00;;;;;;4939796;29;20048;-73
2021/03/20 09:03:43;;;;;;;7.82;3.20;;;1.20;1.00;;;;;;4941906;29;20060;-73
2021/03/20 09:06:19;;;;;;;3.75;3.00;;;1.50;1.00;;;;;;4945190;29;20051;-72
2021/03/20 09:08:48;;;;;;;4.95;2.30;;;2.00;1.00;;;;;;4940507;29;20138;-74
2021/03/20 09:11:28;;;;;;;3.80;2.58;;;2.20;1.00;;;;;;4942259;29;20054;-74
2021/03/20 09:14:02;;;;;;;6.43;3.35;;;1.80;1.00;;;;;;4939541;29;20053;-73
2021/03/20 09:16:35;;;;;;;6.97;3.30;;;2.10;1.00;;;;;;4941648;29;20043;-73
2021/03/20 09:19:06;;;;;;;3.47;2.42;;;2.30;1.00;;;;;;4935888;29;20051;-74
2021/03/20 09:21:37;;;;;;;2.90;2.20;;;2.60;1.00;;;;;;4941919;29;20070;-75
2021/03/20 09:24:08;;;;;;;3.13;2.10;;;2.80;1.00;;;;;;4939714;29;20417;-75
2021/03/20 09:26:41;;;;;;;3.28;2.47;;;2.40;1.00;;;;;;4947857;29;20081;-73
2021/03/20 09:29:12;;;;;;;2.92;2.33;;;2.50;1.00;;;;;;4938332;29;20098;-74
2021/03/20 09:32:07;;;;;;;4.07;2.63;;;2.40;1.00;;;;;;4945066;29;20416;-75
2021/03/20 09:34:38;;;;;;;;;;;2.50;1.00;;;;;;4942565;29;20062;-73
2021/03/20 09:37:27;;;;;;;2.13;1.67;;;2.80;1.00;;;;;;4942610;29;19927;-74
2021/03/20 09:39:54;;;;;;;4.53;2.20;;;2.80;1.00;;;;;;4933444;29;20060;-74
2021/03/20 09:42:31;;;;;;;3.90;2.25;;;2.60;1.00;;;;;;4943986;29;20051;-80
2021/03/20 09:45:00;;;;;;;3.75;1.85;;;2.70;1.00;;;;;;4939335;29;20051;-74
2021/03/20 09:47:46;;;;;;;3.90;2.03;;;3.10;1.00;;;;;;4939109;29;20066;-74
2021/03/20 09:50:30;;;;;;;3.50;2.53;;;2.50;1.00;;;;;;4940651;29;20056;-73
2021/03/20 09:53:23;;;;;;;4.00;2.17;;;2.80;1.00;;;;;;4941761;29;20498;-73
2021/03/20 09:55:51;;;;;;;4.45;2.50;;;2.90;1.00;;;;;;4940139;29;20051;-74
2021/03/20 09:58:39;;;;;;;3.47;2.00;;;3.30;1.00;;;;;;4939234;29;20051;-73
2021/03/20 10:01:47;;;;;;;5.22;2.38;;;3.20;1.00;;;;;;4944801;29;20047;-75
2021/03/20 10:04:29;;;;;;;4.60;2.20;;;2.90;1.00;;;;;;4921878;29;20054;-75
2021/03/20 10:07:26;;;;;;;3.05;2.33;;;3.00;1.00;;;;;;4940473;29;20054;-74
2021/03/20 10:09:57;;;;;;;3.92;2.67;;;3.20;1.00;;;;;;4941191;29;20059;-73
2021/03/20 10:12:27;;;;;;;3.75;2.22;;;3.50;1.00;;;;;;4938919;29;20066;-76
2021/03/20 10:15:02;;;;;;;4.13;2.58;;;3.10;1.00;;;;;;4943662;29;20134;-73
2021/03/20 10:17:31;;;;;;;6.18;2.38;;;3.10;1.00;;;;;;4943960;29;20060;-74
2021/03/20 10:20:12;;;;;;;3.35;2.20;;;3.40;1.00;;;;;;4939555;29;20066;-73
2021/03/20 10:22:50;;;;;;;3.55;2.00;;;3.40;1.00;;;;;;4939712;29;20143;-71
2021/03/20 10:25:20;;;;;;;2.40;2.15;;;3.00;1.00;;;;;;4942724;29;20072;-72
2021/03/20 10:28:00;;;;;;;4.30;2.55;;;2.80;1.00;;;;;;4939510;29;20478;-72
2021/03/20 10:30:30;;;;;;;7.03;2.50;;;2.50;1.00;;;;;;4937556;29;20525;-73
2021/03/20 10:32:58;;;;;;;4.25;2.78;;;2.20;1.00;;;;;;4937292;29;20591;-75
2021/03/20 10:35:30;;;;;;;4.10;2.63;;;2.70;1.00;;;;;;4935275;29;20055;-74
2021/03/20 10:37:57;;;;;;;4.25;2.80;;;2.70;1.00;;;;;;4937891;29;20502;-73
2021/03/20 10:40:26;;;;;;;4.05;2.63;;;2.50;1.00;;;;;;4930357;29;20058;-74
2021/03/20 10:42:57;;;;;;;6.07;2.60;;;2.40;1.00;;;;;;4933331;29;20048;-77
2021/03/20 10:45:30;;;;;;;3.85;2.60;;;2.20;1.00;;;;;;4937827;29;20418;-73
2021/03/20 10:48:04;;;;;;;5.03;2.75;;;2.20;1.00;;;;;;4938722;29;20055;-74
2021/03/20 10:50:34;;;;;;;6.18;3.15;;;2.20;1.00;;;;;;4939089;29;20051;-75
2021/03/20 10:53:05;;;;;;;3.55;2.70;;;2.20;1.00;;;;;;4933872;29;20659;-75
2021/03/20 10:55:41;;;;;;;4.28;2.60;;;2.30;1.00;;;;;;4943755;29;20512;-74
2021/03/20 10:58:14;;;;;;;6.05;3.58;;;2.70;1.00;;;;;;4943935;29;20061;-75
2021/03/20 11:00:44;;;;;;;3.42;2.53;;;3.00;1.00;;;;;;4939564;29;20051;-73
2021/03/20 11:03:18;;;;;;;4.82;3.00;;;2.90;1.00;;;;;;4938141;29;20047;-77
2021/03/20 11:05:46;;;;;;;2.90;2.17;;;2.90;1.00;;;;;;4939955;29;20469;-74
2021/03/20 11:08:24;;;;;;;3.67;2.55;;;3.20;1.00;;;;;;4944588;29;20133;-74
2021/03/20 11:11:05;;;;;;;4.15;2.47;;;2.80;1.00;;;;;;4938191;29;20073;-73
2021/03/20 11:13:36;;;;;;;4.25;2.80;;;3.30;1.00;;;;;;4941495;29;20054;-76
2021/03/20 11:16:07;;;;;;;3.60;2.72;;;2.90;1.00;;;;;;4940186;29;20059;-74
2021/03/20 11:18:39;;;;;;;3.85;2.55;;;3.20;1.00;;;;;;4940179;29;20102;-74
2021/03/20 11:21:22;;;;;;;2.75;2.30;;;3.10;1.00;;;;;;4939678;29;20043;-74
2021/03/20 11:23:54;;;;;;;3.67;2.17;;;2.90;1.00;;;;;;4945742;29;20130;-73
2021/03/20 11:26:35;;;;;;;3.92;2.90;;;2.90;1.00;;;;;;4939276;29;20051;-74
2021/03/20 11:29:04;;;;;;;5.22;2.78;;;2.70;1.00;;;;;;4938309;29;20657;-75
2021/03/20 11:31:39;;;;;;;5.00;3.20;;;2.80;1.00;;;;;;4946496;29;20058;-74
2021/03/20 11:34:07;;;;;;;7.35;2.83;;;3.00;1.00;;;;;;4939008;29;20056;-73
2021/03/20 11:36:35;;;;;;;4.32;2.30;;;3.30;1.00;;;;;;4940150;29;20077;-75
2021/03/20 11:39:07;;;;;;;6.60;2.45;;;3.40;1.00;;;;;;4936230;29;20130;-73
2021/03/20 11:41:36;;;;;;;2.90;2.22;;;3.50;1.00;;;;;;4942407;29;20063;-72
2021/03/20 11:44:10;;;;;;;4.15;2.47;;;3.60;1.00;;;;;;4936677;29;20094;-72
2021/03/20 11:46:46;;;;;;;4.78;2.80;;;3.20;1.00;;;;;;4939268;29;20131;-74
2021/03/20 11:49:23;;;;;;;3.63;2.90;;;3.40;1.00;;;;;;4936926;29;20055;-74
2021/03/20 11:51:51;;;;;;;4.55;2.65;;;2.80;1.00;;;;;;4937061;29;20054;-73
2021/03/20 11:54:26;;;;;;;3.38;2.47;;;2.80;1.00;;;;;;4938167;29;20047;-74
2021/03/20 11:56:55;;;;;;;;;;;2.90;1.00;;;;;;4940173;29;20063;-75
2021/03/20 11:59:37;;;;;;;3.92;2.47;;;3.20;1.00;;;;;;4937801;29;21384;-73
2021/03/20 12:02:06;;;;;;;4.22;2.90;;;3.40;1.00;;;;;;4939041;29;20051;-73
2021/03/20 12:04:34;;;;;;;3.97;2.50;;;3.00;1.00;;;;;;4936307;29;20055;-73
2021/03/20 12:07:20;;;;;;;4.30;2.97;;;2.90;1.00;;;;;;4935110;29;20051;-73
2021/03/20 12:09:47;;;;;;;3.53;2.92;;;3.10;1.00;;;;;;4932738;29;20445;-75
2021/03/20 12:12:16;;;;;;;4.18;2.83;;;3.60;1.00;;;;;;4936872;28;20051;-74
2021/03/20 12:14:45;;;;;;;6.88;3.08;;;3.10;1.00;;;;;;4932473;29;20135;-75
2021/03/20 12:17:18;;;;;;;4.32;2.75;;;3.30;1.00;;;;;;4939561;29;20051;-75
2021/03/20 12:19:59;;;;;;;4.47;2.80;;;3.60;1.00;;;;;;4937124;29;20059;-74
2021/03/20 12:22:33;;;;;;;3.97;2.65;;;3.60;1.00;;;;;;4936600;29;20069;-75
2021/03/20 12:25:08;;;;;;;3.58;2.72;;;3.30;1.00;;;;;;4939743;29;20047;-72
2021/03/20 12:27:38;;;;;;;5.65;2.70;;;3.40;1.00;;;;;;4941159;29;20053;-74
2021/03/20 12:30:21;;;;;;;5.93;2.67;;;3.30;1.00;;;;;;4936036;28;20130;-72
2021/03/20 12:32:49;;;;;;;4.45;2.47;;;3.20;1.00;;;;;;4943935;29;21555;-74
2021/03/20 12:35:33;;;;;;;6.53;2.67;;;3.50;1.00;;;;;;4939502;29;21908;-74
2021/03/20 12:38:18;;;;;;;2.70;2.15;;;3.50;1.00;;;;;;4939708;29;20142;-73
2021/03/20 12:40:51;;;;;;;3.80;2.60;;;3.80;1.00;;;;;;4936812;29;20047;-74
2021/03/20 12:43:25;;;;;;;7.15;4.25;;;3.90;1.00;;;;;;4940391;29;20700;-74
2021/03/20 12:45:54;;;;;;;4.53;2.60;;;3.70;1.00;;;;;;4945214;29;20425;-74
2021/03/20 12:48:22;;;;;;;4.15;2.30;;;3.80;1.00;;;;;;4943401;29;20051;-75
2021/03/20 12:50:54;;;;;;;3.20;2.55;;;3.90;1.00;;;;;;4935902;28;20514;-73
2021/03/20 12:53:21;;;;;;;3.90;2.70;;;3.80;1.00;;;;;;4940358;29;20043;-74
2021/03/20 12:55:48;;;;;;;4.32;2.58;;;3.60;1.00;;;;;;4942549;28;20048;-74
2021/03/20 12:58:15;;;;;;;3.53;2.22;;;3.60;1.00;;;;;;4939954;29;20435;-74
2021/03/20 13:00:42;;;;;;;4.72;2.97;;;3.50;1.00;;;;;;4934036;29;20059;-76
2021/03/20 13:03:09;;;;;;;5.22;2.50;;;3.70;1.00;;;;;;4931129;29;20059;-76
2021/03/20 13:05:39;;;;;;;3.28;2.50;;;3.90;1.00;;;;;;4937727;29;20055;-72
2021/03/20 13:08:07;;;;;;;4.00;2.47;;;3.60;1.00;;;;;;4943720;29;20512;-73
2021/03/20 13:10:34;;;;;;;3.72;2.88;;;3.80;1.00;;;;;;4941260;29;20059;-73
2021/03/20 13:13:02;;;;;;;4.13;2.50;;;3.90;1.00;;;;;;4933785;29;20062;-73
2021/03/20 13:15:29;;;;;;;3.45;2.53;;;4.00;1.00;;;;;;4941610;29;20048;-75
2021/03/20 13:17:57;;;;;;;5.47;2.20;;;4.40;1.00;;;;;;4948457;28;20079;-74
2021/03/20 13:20:42;;;;;;;2.58;2.10;;;4.40;1.00;;;;;;4939622;29;20050;-73
2021/03/20 13:23:10;;;;;;;3.90;2.65;;;3.80;1.00;;;;;;4941892;29;20537;-73
2021/03/20 13:25:40;;;;;;;3.95;2.58;;;3.60;1.00;;;;;;4946580;29;20055;-73
2021/03/20 13:28:09;;;;;;;4.30;2.17;;;3.90;1.00;;;;;;4948456;28;20133;-73
2021/03/20 13:30:41;;;;;;;3.05;1.95;;;3.70;1.00;;;;;;4941406;28;20409;-74